Maldegem, Belgium

11:52 AM CEST on April 25, 2017 (GMT +0200)
Deisterweg | | Change Station

Elev 16 ft 51.21 °N, 3.48 °E | Updated 18 seconds ago

Partly Cloudy
Partly Cloudy
41.9 °F
Feels Like 42 °F
N
0.0
Wind Variable Wind from SSW
Gusts 0.0 mph

Today
High -- | Low -- °F
--% Chance of Precip.
Yesterday
High -- | Low -- °F
Precip. -- in
Pressure 29.89 in
Visibility 6.2 miles
Clouds Scattered Clouds 2200 ft
Mostly Cloudy 3300 ft
Windchill 42 °F
Dew Point 38 °F
Humidity 86%
Rainfall 0.04 in
Snow Depth Not available.
6:30 AM 8:59 PM
Waning Crescent, 2% visible
METAR EBOS 250920Z 32013KT 9999 SCT022 BKN033 06/01 Q1012 NOSIG
Pressure 29.89 in
Visibility 6.2 miles
Clouds Scattered Clouds 2200 ft
Mostly Cloudy 3300 ft
Windchill 42 °F
Dew Point 38 °F
Humidity 86%
Rainfall 0.04 in
Snow Depth Not available.
6:30 AM 8:59 PM
Waning Crescent, 2% visible
METAR EBOS 250920Z 32013KT 9999 SCT022 BKN033 06/01 Q1012 NOSIG

Get Severe Weather Alerts

Thanks for signing up!

Be on the lookout for a verification email in your inbox.

You'll start receiving the daily forecast at 8 AM.

×

10-Day Weather Forecast

×

Almanac

Astronomy

Apr. 25, 2017 Rise Set
Actual Time
Civil Twilight
Nautical Twilight
Astronomical Twilight
Moon
Length of Visible Light
Length of Day
Tomorrow will be .
, % of the Moon is Illuminated

Today's Extremes

Country Highs Country Lows

Community

WunderPhotos

WunderBlog® & News

Nearby

Air Quality

  Air Quality AQ Index Pollutant
Not available.

Snow Depth

Station Depth Elevation

Earthquake Activity

City Distance Mag. Time & Date
Minimum magnitude displayed is 2.5.

Coastal Water Temperatures

Place Temperature

Stations

Nearby Weather Stations

Station Location Temp. Windchill Dew Point Humidity Wind Precip. Elev Updated Type